Flight Track Log - Related Links

Times and Time Zones

All times are in EDT time to prevent confusion due to time zone crossing. See the SWA197 flight status page for this flight to view local times or setup timezone preferences in your user account.

Time Position Orientation Groundspeed Altitude Reporting Facility
EDT Latitude Longitude Course Direction KTS MPH feet Rate Location/Type
08:57AM 36.1333 -86.6500 73° East 162 186 1,300  Level Nashville TRACON
08:58AM 36.1500 -86.5833 73° East 226 260 3,800 2,565 Climbing Nashville TRACON
08:59AM 36.1333 -86.4833 102° East 282 325 7,200 3,182 Climbing Nashville TRACON
09:00AM 36.1286 -86.3944 94° East 289 333 10,800 2,905 Climbing Memphis Center
09:01AM 36.1544 -86.2878 73° East 303 349 13,300 2,850 Climbing Memphis Center
09:02AM 36.1794 -86.1658 76° East 334 384 16,500 2,900 Climbing Memphis Center
09:03AM 36.2128 -86.0456 71° East 363 418 19,100 2,600 Climbing Memphis Center
09:04AM 36.2628 -85.9272 62° Northeast 380 437 21,700 2,515 Climbing Memphis Center
09:06AM 36.3278 -85.7850 60° Northeast 393 452 24,800 2,304 Climbing Indianapolis Center
09:07AM 36.3981 -85.6386 59° Northeast 404 465 27,000 1,065 Climbing Indianapolis Center
09:08AM 36.4586 -85.5117 59° Northeast 419 482 27,000 97 Level Indianapolis Center
09:09AM 36.5186 -85.3839 60° Northeast 424 488 27,200 968 Climbing Indianapolis Center
09:10AM 36.5783 -85.2583 59° Northeast 421 484 29,000 871 Climbing Indianapolis Center
09:11AM 36.6336 -85.1219 63° Northeast 435 501 29,000 581 Level Indianapolis Center
09:12AM 36.6767 -84.9775 70° East 442 509 30,200 1,561 Climbing Indianapolis Center
09:13AM 36.7214 -84.8333 69° East 443 510 32,200 1,500 Climbing Indianapolis Center
09:14AM 36.7658 -84.6875 69° East 447 514 33,300 1,776 Climbing Indianapolis Center
09:15AM 36.8172 -84.5144 70° East 441 507 35,900 2,032 Climbing Indianapolis Center
09:16AM 36.8544 -84.3908 69° East 433 498 37,500 1,500 Climbing Indianapolis Center
09:17AM 36.9031 -84.2317 69° East 420 483 39,000 726 Climbing Indianapolis Center
09:18AM 36.9439 -84.0933 70° East 421 484 39,000  Level Indianapolis Center
09:19AM 36.9853 -83.9567 69° East 420 483 39,000  Level Indianapolis Center
09:20AM 37.0250 -83.8203 70° East 416 479 39,000  Level Indianapolis Center
09:21AM 37.0656 -83.6828 70° East 418 481 39,000  Level Indianapolis Center
09:22AM 37.1064 -83.5453 70° East 418 481 39,000  Level Indianapolis Center
09:23AM 37.1536 -83.3833 70° East 422 486 39,000  Level Indianapolis Center
09:24AM 37.1942 -83.2442 70° East 422 486 39,000  Level Indianapolis Center
09:25AM 37.2344 -83.1028 70° East 423 487 39,000  Level Indianapolis Center
09:26AM 37.2750 -82.9628 70° East 424 488 39,000  Level Indianapolis Center
09:27AM 37.3147 -82.8222 70° East 423 487 39,000  Level Indianapolis Center
09:28AM 37.3550 -82.6811 70° East 426 490 39,000  Level Indianapolis Center
09:29AM 37.3944 -82.5408 70° East 424 488 39,000  Level Indianapolis Center
09:30AM 37.4400 -82.3769 71° East 424 488 39,000  Level Indianapolis Center
09:31AM 37.4797 -82.2353 71° East 427 491 39,000  Level Indianapolis Center
09:32AM 37.5194 -82.0942 70° East 425 489 39,000  Level Indianapolis Center
09:34AM 37.5578 -81.9539 71° East 422 486 39,000  Level Indianapolis Center
09:35AM 37.5947 -81.8147 71° East 420 483 39,000  Level Indianapolis Center
09:36AM 37.6392 -81.6531 71° East 418 481 39,000  Level Indianapolis Center
09:37AM 37.6769 -81.5139 71° East 419 482 39,000  Level Indianapolis Center
09:38AM 37.7114 -81.3828 72° East 414 476 39,000  Level Indianapolis Center
09:39AM 37.7486 -81.2461 71° East 420 483 39,000  Level Indianapolis Center
09:40AM 37.7878 -81.0822 73° East 419 482 39,000  Level Indianapolis Center
09:41AM 37.8028 -80.9356 83° East 431 496 39,000  Level Indianapolis Center
09:42AM 37.8206 -80.7769 82° East 427 491 39,000  Level Indianapolis Center
09:43AM 37.8369 -80.6253 82° East 434 499 39,000  Level Indianapolis Center
09:44AM 37.8547 -80.4692 82° East 431 496 39,000 -435 Level Indianapolis Center
09:45AM 37.8403 -80.3186 97° East 444 511 38,100 -871 Descending Indianapolis Center
09:46AM 37.8489 -80.1742 86° East 425 489 37,200 -1,016 Descending Indianapolis Center
09:47AM 37.9056 -80.0175 65° Northeast 416 479 36,000 -1,016 Descending Indianapolis Center
09:48AM 37.9525 -79.8839 66° East 422 486 35,100 -484 Descending Indianapolis Center
09:49AM 37.9992 -79.7511 66° East 422 486 35,000 -48 Descending Indianapolis Center
09:50AM 38.0550 -79.5928 66° East 419 482 35,000  Level Indianapolis Center
09:51AM 38.1014 -79.4608 66° East 418 481 35,000  Level Indianapolis Center
09:52AM 38.1503 -79.3333 64° Northeast 411 473 35,000 -677 Level Washington Center
09:53AM 38.1961 -79.2008 66° East 411 473 33,600 -2,033 Descending Washington Center
09:54AM 38.2419 -79.0656 67° East 411 473 30,900 -2,773 Descending Washington Center
09:55AM 38.2942 -78.9147 66° East 416 479 28,100 -1,983 Descending Washington Center
09:56AM 38.3308 -78.7944 69° East 416 479 27,000 -541 Descending Washington Center
09:57AM 38.3781 -78.6614 66° East 411 473 27,000  Level Washington Center
09:58AM 38.4211 -78.5253 68° East 411 473 27,000  Level Washington Center
09:59AM 38.4681 -78.3894 66° East 411 473 27,000 -446 Level Washington Center
10:00AM 38.5108 -78.2531 68° East 411 473 26,100 -1,700 Descending Washington Center
10:01AM 38.5553 -78.1217 67° East 411 473 23,600 -2,430 Descending Washington Center
10:02AM 38.5975 -77.9931 67° East 400 460 21,200 -2,281 Descending Washington Center
10:03AM 38.6356 -77.8694 68° East 385 443 19,000 -1,119 Descending Washington Center
10:04AM 38.6464 -77.7314 84° East 379 436 19,000  Level Washington Center
10:05AM 38.6500 -77.6167 88° East 389 448 19,000 -686 Level Potomac TRACON
10:06AM 38.6667 -77.4833 81° East 383 441 17,800 -1,500 Descending Potomac TRACON
10:07AM 38.6667 -77.3333 90° East 377 434 16,000 -1,250 Descending Potomac TRACON
10:08AM 38.6833 -77.2000 81° East 357 411 15,300 -1,488 Descending Potomac TRACON
10:09AM 38.6833 -77.0833 90° East 355 409 13,000 -1,934 Descending Potomac TRACON
10:10AM 38.7000 -76.9667 80° East 344 396 11,400 -1,474 Descending Potomac TRACON
10:11AM 38.7000 -76.8500 90° East 321 369 10,200 -1,150 Descending Potomac TRACON
10:12AM 38.7167 -76.7500 78° East 284 327 9,100 -857 Descending Potomac TRACON
10:13AM 38.7500 -76.6667 63° Northeast 269 310 8,400 -1,150 Descending Potomac TRACON
10:14AM 38.7833 -76.5833 63° Northeast 270 311 6,800 -1,600 Descending Potomac TRACON
10:15AM 38.8333 -76.5167 46° Northeast 264 304 5,200 -1,150 Descending Potomac TRACON
10:16AM 38.9000 -76.5000 11° North 243 280 4,500 -545 Descending Potomac TRACON
10:17AM 38.9500 -76.4833 15° North 206 237 4,100 -744 Descending Potomac TRACON
10:18AM 39.0167 -76.5167 339° North 205 236 3,000 -700 Descending Potomac TRACON
10:19AM 39.0500 -76.5667 311° West 207 238 2,700 -600 Descending Potomac TRACON
10:20AM 39.1000 -76.6000 333° Northwest 184 212 1,800 -893 Descending Potomac TRACON
10:21AM 39.1333 -76.6333 322° Northwest 145 167 900 -885 Descending Potomac TRACON
10:23AM 39.1667 -76.6667 339° North  Level FlightAware Approximate
10:30AM 39.1754 -76.6683 339° North  Level Estimated
10:31AM 39.1754 -76.6683 339° North  Level Estimated

Login

Don't have an account? Register now (free) for customized features, flight alerts, and more!